Time;durP1;ratioP1;P1;durP2;ratioP2;P2;SDS_P1;SDS_P2;PMS_P1;PMS_P2;Temp;Humidity;BMP_temperature;BMP_pressure;BME280_temperature;BME280_humidity;BME280_pressure;Samples;Min_cycle;Max_cycle;Signal;HPM_P1;HPM_P2
2023/09/26 00:01:56;;;;;;;7.55;6.35;;;;;;;16.07;78.40;99908.06;5127695;28;20051;-74
2023/09/26 00:04:23;;;;;;;8.30;6.03;;;;;;;16.04;78.46;99909.16;5127232;28;20052;-74
2023/09/26 00:06:50;;;;;;;8.85;6.60;;;;;;;15.86;78.14;99876.50;5128005;28;20096;-74
2023/09/26 00:09:18;;;;;;;11.82;6.47;;;;;;;16.01;77.97;99907.53;5126521;28;20039;-74
2023/09/26 00:11:45;;;;;;;6.68;6.07;;;;;;;16.05;78.74;99897.50;5127221;28;20268;-74
2023/09/26 00:14:12;;;;;;;7.38;6.68;;;;;;;15.75;78.29;99849.66;5127196;28;20035;-74
2023/09/26 00:16:39;;;;;;;8.82;6.75;;;;;;;16.01;78.33;99904.88;5127438;28;20089;-75
2023/09/26 00:19:06;;;;;;;9.32;7.13;;;;;;;16.03;78.59;99899.41;5127062;28;20081;-75
2023/09/26 00:21:33;;;;;;;8.77;6.72;;;;;;;15.95;78.70;99899.09;5126268;28;20039;-75
2023/09/26 00:23:59;;;;;;;11.23;6.88;;;;;;;15.95;79.00;99899.09;5127332;28;20039;-75
2023/09/26 00:26:28;;;;;;;6.88;6.20;;;;;;;15.94;79.00;99898.22;5127108;28;20299;-75
2023/09/26 00:28:55;;;;;;;11.18;6.35;;;;;;;15.95;78.84;99894.59;5127202;28;20047;-75
2023/09/26 00:31:22;;;;;;;6.88;6.15;;;;;;;15.91;78.96;99887.75;5126544;28;20036;-75
2023/09/26 00:33:49;;;;;;;8.13;7.32;;;;;;;15.91;78.70;99881.53;5126870;28;20198;-74
2023/09/26 00:36:16;;;;;;;9.73;6.55;;;;;;;15.92;78.90;99888.59;5127558;28;20098;-74
2023/09/26 00:38:42;;;;;;;7.72;6.10;;;;;;;15.89;79.34;99880.78;5127255;28;20055;-75
2023/09/26 00:41:10;;;;;;;6.95;5.65;;;;;;;15.89;78.92;99895.03;5127174;28;20093;-75
2023/09/26 00:43:38;;;;;;;6.72;6.03;;;;;;;15.86;79.07;99876.50;5126941;28;20077;-75
2023/09/26 00:46:08;;;;;;;7.95;6.07;;;;;;;15.87;79.09;99880.91;5125835;28;20040;-75
2023/09/26 00:48:37;;;;;;;8.60;6.03;;;;;;;15.54;79.37;99827.91;5126579;28;20306;-75
2023/09/26 00:51:06;;;;;;;8.50;6.57;;;;;;;14.99;79.09;99730.19;5125710;28;20044;-74
2023/09/26 00:53:33;;;;;;;8.00;6.72;;;;;;;15.78;79.45;99865.50;5126672;28;20084;-75
2023/09/26 00:56:00;;;;;;;7.35;6.35;;;;;;;15.85;78.88;99871.28;5126737;28;20183;-75
2023/09/26 00:58:31;;;;;;;9.75;6.22;;;;;;;15.83;79.15;99871.38;5126797;28;20055;-75
2023/09/26 01:00:59;;;;;;;7.03;6.32;;;;;;;15.44;79.44;99802.78;5126614;28;20115;-75
2023/09/26 01:03:26;;;;;;;6.78;6.07;;;;;;;15.51;79.49;99819.25;5126547;28;20062;-75
2023/09/26 01:05:53;;;;;;;7.25;5.80;;;;;;;15.81;79.31;99873.31;5108661;28;20073;-75
2023/09/26 01:08:20;;;;;;;7.80;6.40;;;;;;;15.52;79.32;99821.81;5124855;28;20039;-76
2023/09/26 01:10:47;;;;;;;9.60;6.72;;;;;;;15.50;80.05;99833.56;5125433;28;20119;-75
2023/09/26 01:13:14;;;;;;;8.57;6.50;;;;;;;15.49;79.59;99826.53;5126788;28;20047;-75
2023/09/26 01:15:43;;;;;;;7.28;6.40;;;;;;;15.76;80.16;99875.44;5126513;28;20318;-76
2023/09/26 01:18:12;;;;;;;9.15;7.10;;;;;;;15.49;80.01;99821.19;5126461;28;20054;-75
2023/09/26 01:20:39;;;;;;;10.02;6.55;;;;;;;15.49;80.13;99827.38;5125243;28;20043;-76
2023/09/26 01:23:07;;;;;;;11.45;8.45;;;;;;;15.25;80.39;99795.16;5125023;28;20043;-75
2023/09/26 01:25:35;;;;;;;7.72;6.25;;;;;;;15.33;80.62;99808.84;5126710;28;20107;-76
2023/09/26 01:28:06;;;;;;;11.23;7.05;;;;;;;15.30;80.13;99800.19;5125258;28;20225;-75
2023/09/26 01:30:34;;;;;;;8.07;6.65;;;;;;;15.75;80.67;99875.53;5126692;28;20044;-75
2023/09/26 01:33:01;;;;;;;9.07;7.10;;;;;;;15.42;80.22;99823.41;5125526;28;20352;-75
2023/09/26 01:35:27;;;;;;;11.95;6.63;;;;;;;14.89;80.35;99738.91;5126268;28;20096;-75
2023/09/26 01:37:54;;;;;;;7.93;7.18;;;;;;;15.69;80.24;99879.47;5126590;28;20102;-75
2023/09/26 01:40:21;;;;;;;6.82;5.80;;;;;;;14.90;79.97;99746.81;5125630;28;20090;-75
2023/09/26 01:42:49;;;;;;;8.07;5.78;;;;;;;15.34;80.35;99831.09;5125990;28;20073;-75
2023/09/26 01:45:16;;;;;;;8.05;6.50;;;;;;;15.68;80.15;99888.47;5126509;28;20233;-75
2023/09/26 01:47:46;;;;;;;6.90;6.20;;;;;;;15.36;79.95;99835.34;5126165;28;20063;-76
2023/09/26 01:50:13;;;;;;;8.35;6.43;;;;;;;15.63;79.67;99885.22;5108900;28;20040;-75
2023/09/26 01:52:40;;;;;;;7.63;6.82;;;;;;;15.62;80.13;99881.69;5126112;28;20040;-76
2023/09/26 01:55:09;;;;;;;7.68;6.20;;;;;;;15.62;80.06;99883.50;5126120;28;20202;-76
2023/09/26 01:57:36;;;;;;;6.80;5.82;;;;;;;15.14;79.55;99823.53;5125823;28;20249;-76
2023/09/26 02:00:10;;;;;;;7.45;6.22;;;;;;;15.62;80.01;99886.16;5125404;28;20089;-76
2023/09/26 02:02:37;;;;;;;7.70;5.63;;;;;;;15.59;79.64;99876.56;5126184;28;20326;-76
2023/09/26 02:05:04;;;;;;;8.05;5.78;;;;;;;15.27;79.62;99827.97;5124702;28;20055;-75
2023/09/26 02:07:31;;;;;;;7.30;6.10;;;;;;;15.55;79.49;99875.03;5125395;28;20173;-76
2023/09/26 02:09:58;;;;;;;6.45;5.35;;;;;;;15.54;79.10;99873.34;5125688;28;20035;-75
2023/09/26 02:12:25;;;;;;;6.93;5.68;;;;;;;15.52;79.07;99871.72;5125980;28;20054;-76
2023/09/26 02:14:52;;;;;;;6.63;5.07;;;;;;;15.54;79.69;99878.69;5125692;28;20181;-76
2023/09/26 02:17:20;;;;;;;7.53;5.32;;;;;;;15.48;79.58;99865.72;5124809;28;20043;-76
2023/09/26 02:19:47;;;;;;;7.32;5.78;;;;;;;14.91;79.28;99775.22;5129215;28;20040;-76
2023/09/26 02:22:14;;;;;;;6.97;6.28;;;;;;;15.46;79.57;99864.13;5129699;28;20076;-76
2023/09/26 02:24:41;;;;;;;7.40;5.72;;;;;;;15.11;79.65;99815.75;5129640;28;20112;-76
2023/09/26 02:27:07;;;;;;;7.63;6.22;;;;;;;15.16;79.59;99824.31;5129878;28;20043;-76
2023/09/26 02:29:34;;;;;;;7.65;5.80;;;;;;;15.07;79.62;99810.59;5128513;28;20076;-76
2023/09/26 02:32:01;;;;;;;7.30;6.25;;;;;;;15.42;79.63;99866.13;5129882;28;20108;-75
2023/09/26 02:34:29;;;;;;;7.57;6.78;;;;;;;15.12;79.93;99812.97;5129538;27;20157;-76
2023/09/26 02:36:56;;;;;;;9.55;6.30;;;;;;;15.04;79.80;99809.97;5129477;28;20036;-76
2023/09/26 02:39:22;;;;;;;9.43;7.20;;;;;;;15.07;79.71;99815.94;5129220;28;20330;-76
2023/09/26 02:41:49;;;;;;;8.52;7.40;;;;;;;15.35;80.37;99867.50;5129315;28;20081;-75
2023/09/26 02:44:16;;;;;;;7.25;6.35;;;;;;;15.37;80.47;99865.59;5128201;28;20035;-76
2023/09/26 02:46:42;;;;;;;9.73;7.18;;;;;;;15.37;80.50;99873.59;5129192;28;20047;-76
2023/09/26 02:49:09;;;;;;;10.20;6.95;;;;;;;15.36;80.81;99866.56;5128419;28;20237;-76
2023/09/26 02:51:37;;;;;;;9.40;6.97;;;;;;;15.35;80.89;99873.72;5129181;28;20230;-76
2023/09/26 02:54:04;;;;;;;7.57;6.22;;;;;;;15.35;80.34;99865.69;5129127;28;20051;-76
2023/09/26 02:56:31;;;;;;;8.45;7.32;;;;;;;15.33;80.00;99870.28;5129078;28;20043;-76
2023/09/26 02:58:57;;;;;;;8.80;8.00;;;;;;;15.32;80.94;99873.06;5127876;28;20065;-76
2023/09/26 03:01:24;;;;;;;8.43;7.22;;;;;;;14.99;80.67;99812.94;5128995;28;20097;-76
2023/09/26 03:03:53;;;;;;;9.13;6.75;;;;;;;15.29;80.74;99866.09;5127637;28;20047;-76
2023/09/26 03:06:20;;;;;;;9.73;7.53;;;;;;;15.31;81.05;99864.19;5128559;28;20039;-76
2023/09/26 03:08:48;;;;;;;9.27;7.55;;;;;;;15.27;80.67;99857.34;5128821;28;20310;-76
2023/09/26 03:11:15;;;;;;;8.30;7.30;;;;;;;14.66;81.00;99762.63;5127601;28;20035;-76
2023/09/26 03:13:42;;;;;;;9.55;7.60;;;;;;;15.27;80.50;99869.84;5128413;27;20100;-76
2023/09/26 03:16:08;;;;;;;8.32;7.43;;;;;;;15.24;80.44;99862.88;5128328;28;20183;-76
2023/09/26 03:18:36;;;;;;;8.45;7.55;;;;;;;15.26;80.72;99860.13;5127493;28;20054;-76
2023/09/26 03:21:05;;;;;;;8.13;7.07;;;;;;;15.20;81.08;99847.16;5127990;28;20348;-76
2023/09/26 03:23:33;;;;;;;10.15;8.13;;;;;;;15.24;81.10;99856.69;5127448;28;20035;-76
2023/09/26 03:26:01;;;;;;;10.23;8.98;;;;;;;15.22;81.07;99861.28;5128125;28;20043;-76
2023/09/26 03:28:28;;;;;;;9.63;7.70;;;;;;;14.87;81.81;99813.75;5128637;27;20055;-76
2023/09/26 03:30:55;;;;;;;9.43;8.38;;;;;;;15.18;81.21;99867.78;5126608;28;20036;-76
2023/09/26 03:33:21;;;;;;;10.10;7.97;;;;;;;14.87;81.26;99810.22;5128498;28;20043;-76
2023/09/26 03:35:48;;;;;;;9.40;8.40;;;;;;;15.16;81.37;99867.88;5127220;28;20096;-76
2023/09/26 03:38:15;;;;;;;9.73;8.20;;;;;;;15.17;81.61;99868.72;5127861;28;20054;-76
2023/09/26 03:40:42;;;;;;;11.50;7.45;;;;;;;15.15;81.03;99871.50;5127994;28;20039;-76
2023/09/26 03:43:11;;;;;;;8.50;7.35;;;;;;;15.15;80.93;99865.31;5127751;28;20110;-76
2023/09/26 03:45:38;;;;;;;12.07;10.57;;;;;;;14.95;80.98;99839.91;5127081;28;20042;-75
2023/09/26 03:48:05;;;;;;;9.43;8.38;;;;;;;15.13;81.24;99862.75;5127909;28;20100;-76
2023/09/26 03:50:32;;;;;;;9.15;7.90;;;;;;;15.10;80.84;99864.75;5126993;28;20040;-76
2023/09/26 03:52:58;;;;;;;10.05;7.78;;;;;;;14.77;80.48;99806.44;5126609;28;20099;-76
2023/09/26 03:55:25;;;;;;;8.27;6.60;;;;;;;15.10;80.33;99857.59;5127690;28;20063;-76
2023/09/26 03:57:52;;;;;;;8.25;6.32;;;;;;;15.05;80.90;99855.22;5127391;28;20048;-76
2023/09/26 04:00:25;;;;;;;8.05;7.25;;;;;;;15.04;80.73;99853.53;5127616;28;20044;-76
2023/09/26 04:02:54;;;;;;;7.97;6.78;;;;;;;15.05;80.87;99855.22;5127392;28;20051;-76
2023/09/26 04:05:21;;;;;;;7.55;5.80;;;;;;;15.04;80.42;99850.84;5127574;27;20108;-76
2023/09/26 04:07:48;;;;;;;10.38;6.50;;;;;;;15.03;80.36;99845.63;5127560;28;20043;-76
2023/09/26 04:10:15;;;;;;;7.00;6.05;;;;;;;15.00;80.47;99844.00;5126471;28;20067;-76
2023/09/26 04:12:42;;;;;;;9.23;7.10;;;;;;;14.13;80.43;99705.56;5127485;28;20070;-76
2023/09/26 04:15:09;;;;;;;8.00;7.20;;;;;;;14.98;80.92;99845.91;5127315;28;20036;-76
2023/09/26 04:17:38;;;;;;;8.20;7.03;;;;;;;14.72;80.82;99796.91;5127248;28;20115;-76
2023/09/26 04:20:10;;;;;;;8.23;7.00;;;;;;;14.96;81.05;99839.81;5126062;28;20342;-76
2023/09/26 04:22:37;;;;;;;9.20;7.63;;;;;;;14.95;81.04;99843.44;5127067;28;20043;-76
2023/09/26 04:25:04;;;;;;;9.55;7.57;;;;;;;14.94;81.40;99843.53;5126779;28;20043;-76
2023/09/26 04:27:31;;;;;;;9.40;8.10;;;;;;;14.96;81.34;99853.16;5126810;28;20066;-76
2023/09/26 04:29:58;;;;;;;11.30;9.20;;;;;;;14.96;81.10;99845.16;5127347;28;20039;-76
2023/09/26 04:32:24;;;;;;;9.60;8.18;;;;;;;14.97;81.70;99849.53;5126753;28;20040;-75
2023/09/26 04:34:53;;;;;;;9.48;8.48;;;;;;;14.33;81.26;99765.63;5126765;28;20055;-76
2023/09/26 04:37:20;;;;;;;10.07;8.60;;;;;;;14.94;81.97;99855.06;5126958;28;20039;-76
2023/09/26 04:39:47;;;;;;;10.25;8.35;;;;;;;14.94;81.44;99855.06;5126875;28;20043;-76
2023/09/26 04:42:13;;;;;;;10.60;9.27;;;;;;;14.95;81.69;99855.94;5125875;28;20043;-76
2023/09/26 04:44:40;;;;;;;9.98;8.98;;;;;;;14.95;82.04;99856.78;5126475;28;20054;-76
2023/09/26 04:47:07;;;;;;;11.75;9.25;;;;;;;14.91;82.18;99857.94;5126282;28;20384;-76
2023/09/26 04:49:34;;;;;;;12.60;10.32;;;;;;;14.92;81.80;99859.66;5126972;28;20059;-76
2023/09/26 04:52:03;;;;;;;14.23;10.93;;;;;;;14.92;82.25;99858.81;5125526;28;20200;-76
2023/09/26 04:54:30;;;;;;;11.60;10.20;;;;;;;14.91;82.25;99852.59;5125523;28;20035;-76
2023/09/26 04:56:57;;;;;;;13.45;11.52;;;;;;;14.89;81.95;99857.19;5126616;28;20073;-76
2023/09/26 04:59:24;;;;;;;13.68;10.77;;;;;;;14.59;82.28;99809.31;5126541;28;20043;-76
2023/09/26 05:01:50;;;;;;;13.25;11.80;;;;;;;14.59;82.35;99806.63;5126390;28;20044;-76
2023/09/26 05:04:17;;;;;;;14.23;12.18;;;;;;;14.90;82.15;99856.22;5125081;28;20077;-76
2023/09/26 05:06:44;;;;;;;13.88;12.48;;;;;;;14.88;82.44;99851.94;5126729;28;20199;-75
2023/09/26 05:09:12;;;;;;;15.82;13.00;;;;;;;14.88;82.81;99852.81;5126529;28;20218;-75
2023/09/26 05:11:39;;;;;;;13.68;12.25;;;;;;;14.90;83.09;99863.38;5126350;28;20344;-76
2023/09/26 05:14:05;;;;;;;17.42;13.32;;;;;;;14.90;82.89;99860.72;5125241;28;20040;-75
2023/09/26 05:16:32;;;;;;;15.32;13.65;;;;;;;14.58;82.87;99809.41;5126097;28;20345;-76
2023/09/26 05:18:59;;;;;;;13.82;12.25;;;;;;;14.91;82.72;99865.94;5126369;28;20104;-76
2023/09/26 05:21:25;;;;;;;16.50;12.73;;;;;;;14.89;83.12;99853.66;5126231;28;20039;-76
2023/09/26 05:23:52;;;;;;;16.75;13.60;;;;;;;14.74;83.24;99828.84;5125303;28;20208;-76
2023/09/26 05:26:20;;;;;;;15.57;13.57;;;;;;;14.92;83.45;99859.66;5126188;28;20092;-76
2023/09/26 05:28:47;;;;;;;16.00;12.95;;;;;;;14.94;83.27;99854.22;5124801;28;20047;-76
2023/09/26 05:31:13;;;;;;;15.18;12.70;;;;;;;14.63;83.19;99796.66;5125756;28;20042;-76
2023/09/26 05:33:40;;;;;;;13.55;12.13;;;;;;;14.94;83.56;99852.41;5125589;28;20208;-76
2023/09/26 05:36:07;;;;;;;16.33;12.10;;;;;;;14.95;83.30;99858.59;5124841;28;20120;-76
2023/09/26 05:38:34;;;;;;;14.73;12.07;;;;;;;14.95;83.81;99851.44;5125305;28;20047;-75
2023/09/26 05:41:01;;;;;;;15.45;11.68;;;;;;;14.97;83.66;99857.53;5125922;28;20160;-76
2023/09/26 05:43:30;;;;;;;16.90;13.20;;;;;;;14.20;83.48;99729.19;5125604;28;20059;-76
2023/09/26 05:45:57;;;;;;;21.92;18.15;;;;;;;14.70;83.64;99809.50;5125760;28;20062;-75
2023/09/26 05:48:24;;;;;;;22.48;19.58;;;;;;;15.05;83.34;99865.06;5124842;28;20107;-76
2023/09/26 05:50:59;;;;;;;21.98;17.02;;;;;;;15.10;83.65;99862.09;5126044;28;20047;-76
2023/09/26 05:53:26;;;;;;;20.10;15.10;;;;;;;15.12;82.96;99854.81;5127155;28;20043;-76
2023/09/26 05:55:52;;;;;;;18.67;14.75;;;;;;;15.15;82.99;99868.84;5130014;28;20050;-76
2023/09/26 05:58:19;;;;;;;20.90;14.63;;;;;;;14.85;83.74;99804.13;5128830;28;20303;-76
2023/09/26 06:00:48;;;;;;;14.88;13.25;;;;;;;15.23;83.62;99869.19;5128610;28;20039;-76
2023/09/26 06:03:15;;;;;;;15.40;12.40;;;;;;;15.28;83.11;99872.41;5128502;28;20211;-77
2023/09/26 06:05:44;;;;;;;15.73;13.35;;;;;;;14.88;84.76;99786.09;5129792;28;20336;-76
2023/09/26 06:08:11;;;;;;;19.55;13.35;;;;;;;15.31;83.91;99861.53;5129715;27;20043;-77
2023/09/26 06:10:37;;;;;;;15.48;13.80;;;;;;;15.40;83.42;99870.72;5129425;28;20291;-77
2023/09/26 06:13:04;;;;;;;17.90;13.50;;;;;;;15.15;83.64;99818.09;5130002;28;20047;-77
2023/09/26 06:15:32;;;;;;;15.15;12.35;;;;;;;15.46;83.23;99866.78;5129672;28;20070;-76
2023/09/26 06:18:00;;;;;;;14.88;12.05;;;;;;;15.50;81.59;99863.81;5128638;28;20122;-76
2023/09/26 06:20:28;;;;;;;13.68;12.05;;;;;;;15.40;81.31;99838.69;5129756;28;20051;-77
2023/09/26 06:22:54;;;;;;;12.48;11.23;;;;;;;15.65;81.33;99865.47;5128308;27;20058;-77
2023/09/26 06:25:22;;;;;;;16.73;12.00;;;;;;;15.75;81.84;99856.84;5129027;27;20043;-77
2023/09/26 06:27:49;;;;;;;17.08;12.25;;;;;;;15.80;81.54;99854.69;5129538;28;20051;-76
2023/09/26 06:30:15;;;;;;;13.82;12.18;;;;;;;15.85;81.24;99865.94;5129016;28;20088;-77
2023/09/26 06:32:42;;;;;;;18.27;13.98;;;;;;;15.83;81.85;99858.03;5128950;28;20058;-77
2023/09/26 06:35:11;;;;;;;14.35;11.77;;;;;;;15.84;81.28;99864.22;5129183;27;20177;-77
2023/09/26 06:37:38;;;;;;;13.07;11.65;;;;;;;15.62;81.49;99809.53;5129211;28;20063;-77
2023/09/26 06:40:06;;;;;;;22.65;13.27;;;;;;;15.98;81.31;99866.78;5128463;28;20035;-76
2023/09/26 06:42:34;;;;;;;14.05;12.55;;;;;;;15.64;81.31;99793.41;5129198;28;20062;-77
2023/09/26 06:45:02;;;;;;;17.42;13.55;;;;;;;15.72;80.57;99788.41;5129103;27;20047;-78
2023/09/26 06:47:28;;;;;;;18.25;13.30;;;;;;;16.20;80.42;99861.66;5127765;28;20047;-77
2023/09/26 06:49:56;;;;;;;16.45;12.40;;;;;;;15.95;80.62;99809.06;5128972;27;20062;-77
2023/09/26 06:52:24;;;;;;;16.55;12.70;;;;;;;16.01;80.10;99808.63;5128904;27;20085;-77
2023/09/26 06:54:51;;;;;;;19.02;13.60;;;;;;;16.38;80.07;99861.31;5128878;28;20088;-76
2023/09/26 06:57:20;;;;;;;14.05;11.70;;;;;;;16.50;79.31;99852.41;5128858;28;20151;-77
2023/09/26 06:59:49;;;;;;;14.20;11.20;;;;;;;16.57;79.79;99856.38;5128503;28;20106;-77
2023/09/26 07:02:16;;;;;;;14.65;12.38;;;;;;;16.34;78.92;99805.38;5128709;28;20106;-77
2023/09/26 07:04:43;;;;;;;16.63;13.32;;;;;;;16.72;78.59;99857.97;5127492;28;20048;-77
2023/09/26 07:07:10;;;;;;;18.00;13.68;;;;;;;16.35;78.28;99784.81;5128617;28;20051;-77
2023/09/26 07:09:39;;;;;;;13.95;12.18;;;;;;;16.87;77.92;99853.31;5128766;28;20183;-77
2023/09/26 07:12:06;;;;;;;15.02;12.13;;;;;;;16.88;78.32;99861.25;5127521;28;20036;-77
2023/09/26 07:14:33;;;;;;;15.65;13.07;;;;;;;16.69;77.93;99818.03;5128643;28;20043;-77
2023/09/26 07:17:00;;;;;;;15.65;13.05;;;;;;;17.06;77.56;99860.84;5128276;28;20043;-77
2023/09/26 07:19:32;;;;;;;12.77;10.82;;;;;;;16.99;77.86;99863.13;5128455;27;20084;-77
2023/09/26 07:21:59;;;;;;;16.73;11.70;;;;;;;16.72;77.17;99792.88;5128733;27;20077;-77
2023/09/26 07:24:28;;;;;;;17.50;12.60;;;;;;;17.14;77.29;99851.28;5128401;28;20316;-77
2023/09/26 07:26:56;;;;;;;15.90;12.05;;;;;;;17.27;77.35;99859.28;5128081;28;20043;-77
2023/09/26 07:29:24;;;;;;;15.07;12.10;;;;;;;17.30;77.55;99861.75;5128341;27;20043;-77
2023/09/26 07:31:51;;;;;;;14.23;12.07;;;;;;;16.87;77.13;99794.41;5128274;28;20046;-77
2023/09/26 07:34:20;;;;;;;15.68;11.45;;;;;;;17.51;76.21;99851.22;5128196;28;20179;-77
2023/09/26 07:36:47;;;;;;;13.98;11.30;;;;;;;17.06;75.64;99767.97;5127893;28;20053;-77
2023/09/26 07:39:17;;;;;;;13.68;9.52;;;;;;;17.78;75.95;99859.88;5126967;28;20043;-77
2023/09/26 07:41:44;;;;;;;16.77;10.93;;;;;;;17.81;75.37;99853.41;5127933;28;20047;-77
2023/09/26 07:44:12;;;;;;;16.38;11.45;;;;;;;17.32;75.40;99771.41;5127116;28;20043;-77
2023/09/26 07:46:39;;;;;;;13.02;11.45;;;;;;;17.58;75.96;99799.72;5127985;28;20054;-77
2023/09/26 07:49:05;;;;;;;14.65;12.30;;;;;;;18.07;74.23;99857.59;5127755;28;20088;-77
2023/09/26 07:51:32;;;;;;;14.82;10.00;;;;;;;17.82;73.87;99802.34;5127463;28;20043;-77
2023/09/26 07:53:59;;;;;;;15.50;10.98;;;;;;;17.91;74.46;99809.69;5127532;28;20074;-77
2023/09/26 07:56:26;;;;;;;19.73;12.70;;;;;;;17.83;72.92;99781.75;5128003;28;20040;-77
2023/09/26 07:58:52;;;;;;;19.35;11.93;;;;;;;18.29;74.04;99862.13;5126435;28;20044;-77
2023/09/26 08:01:21;;;;;;;17.55;12.55;;;;;;;18.39;73.33;99854.22;5127605;28;20257;-77
2023/09/26 08:03:47;;;;;;;14.50;12.10;;;;;;;18.53;72.97;99852.16;5127275;28;20056;-77
2023/09/26 08:06:15;;;;;;;14.63;12.77;;;;;;;18.52;72.48;99849.59;5126285;28;20066;-77
2023/09/26 08:08:42;;;;;;;17.45;12.20;;;;;;;18.21;72.57;99798.34;5127790;28;20107;-77
2023/09/26 08:11:12;;;;;;;13.88;11.60;;;;;;;18.20;73.42;99815.44;5127326;28;20061;-77
2023/09/26 08:13:40;;;;;;;20.70;13.32;;;;;;;18.53;72.61;99849.47;5127433;27;20062;-78
2023/09/26 08:16:08;;;;;;;14.93;12.48;;;;;;;17.67;71.55;99696.34;5126815;28;20035;-77
2023/09/26 08:18:36;;;;;;;15.93;12.65;;;;;;;18.78;72.45;99848.34;5109013;28;20055;-78
2023/09/26 08:21:03;;;;;;;14.52;12.32;;;;;;;18.87;71.63;99841.38;5127326;28;20206;-78
2023/09/26 08:23:30;;;;;;;16.08;12.23;;;;;;;18.97;71.13;99845.03;5126470;28;20039;-77
2023/09/26 08:25:57;;;;;;;16.23;11.57;;;;;;;18.98;72.32;99840.50;5127830;28;20106;-77
2023/09/26 08:28:25;;;;;;;16.88;11.23;;;;;;;18.54;71.71;99783.22;5126224;28;20085;-78
2023/09/26 08:30:56;;;;;;;17.38;11.10;;;;;;;18.85;70.87;99800.38;5126794;28;20049;-77
2023/09/26 08:33:23;;;;;;;15.40;10.13;;;;;;;19.14;70.86;99814.06;5126150;28;20047;-77
2023/09/26 08:35:52;;;;;;;14.18;10.18;;;;;;;19.46;69.92;99844.50;5126205;28;20050;-78
2023/09/26 08:38:19;;;;;;;15.35;11.20;;;;;;;19.11;69.04;99765.97;5127020;27;20107;-77
2023/09/26 08:40:47;;;;;;;14.27;9.40;;;;;;;19.64;70.06;99842.09;5127126;28;20044;-78
2023/09/26 08:43:14;;;;;;;11.80;8.60;;;;;;;19.45;69.08;99802.47;5127027;28;20047;-78
2023/09/26 08:45:42;;;;;;;10.10;8.73;;;;;;;19.79;69.50;99843.47;5126863;28;20160;-77
2023/09/26 08:48:08;;;;;;;10.88;8.70;;;;;;;19.92;69.36;99845.16;5126265;28;20047;-78
2023/09/26 08:50:35;;;;;;;14.20;9.13;;;;;;;20.07;67.37;99831.22;5126763;28;20069;-77
2023/09/26 08:53:04;;;;;;;13.27;8.52;;;;;;;20.22;68.71;99839.81;5126133;28;20063;-78
2023/09/26 08:55:32;;;;;;;14.85;8.90;;;;;;;20.18;67.04;99824.91;5126330;28;20039;-77
2023/09/26 08:57:59;;;;;;;13.60;8.90;;;;;;;20.28;68.22;99827.66;5126502;28;20051;-77
2023/09/26 09:00:28;;;;;;;16.25;9.00;;;;;;;20.32;67.17;99826.41;5126942;27;20336;-78
2023/09/26 09:02:55;;;;;;;11.77;7.35;;;;;;;19.94;68.17;99743.66;5125734;28;20039;-78
2023/09/26 09:05:23;;;;;;;10.23;7.32;;;;;;;20.45;66.00;99809.03;5126125;28;20205;-78
2023/09/26 09:07:50;;;;;;;12.90;7.28;;;;;;;20.40;67.03;99816.66;5125087;28;20126;-78
2023/09/26 09:10:18;;;;;;;11.00;7.05;;;;;;;20.54;66.95;99815.44;5125386;28;20047;-78
2023/09/26 09:12:49;;;;;;;11.18;6.68;;;;;;;19.73;67.20;99692.56;5126440;28;20051;-77
2023/09/26 09:15:22;;;;;;;10.20;6.38;;;;;;;20.45;67.50;99811.72;5125979;28;20042;-78
2023/09/26 09:17:51;;;;;;;9.35;6.40;;;;;;;20.48;67.72;99819.53;5125437;28;20062;-78
2023/09/26 09:20:30;;;;;;;15.57;8.25;;;;;;;20.32;67.87;99776.13;5125175;28;20040;-78
2023/09/26 09:23:05;;;;;;;12.40;7.35;;;;;;;20.67;66.93;99805.28;5126240;28;20255;-78
2023/09/26 09:25:35;;;;;;;11.20;7.97;;;;;;;20.90;66.11;99799.66;5091447;28;20127;-78
2023/09/26 09:28:04;;;;;;;8.98;7.55;;;;;;;20.90;64.88;99796.94;5125567;28;20055;-78
2023/09/26 09:30:37;;;;;;;11.05;7.22;;;;;;;20.10;65.34;99644.44;5109572;28;20114;-78
2023/09/26 09:33:05;;;;;;;9.70;7.07;;;;;;;21.01;64.83;99794.97;5125947;28;20032;-77
2023/09/26 09:35:31;;;;;;;9.27;6.15;;;;;;;20.54;65.12;99714.97;5125099;28;20080;-77
2023/09/26 09:37:58;;;;;;;10.40;7.47;;;;;;;21.18;64.36;99784.53;5125749;28;20040;-78
2023/09/26 09:40:26;;;;;;;8.20;6.25;;;;;;;21.04;63.93;99748.06;5126029;28;20050;-77
2023/09/26 09:42:55;;;;;;;10.48;6.45;;;;;;;21.43;63.39;99782.09;5125918;28;20255;-77
2023/09/26 09:45:22;;;;;;;8.65;6.90;;;;;;;20.26;65.22;99614.34;5126062;28;20047;-77
2023/09/26 09:47:49;;;;;;;12.02;7.63;;;;;;;21.49;63.55;99780.69;5126084;28;20051;-78
2023/09/26 09:50:18;;;;;;;10.57;6.90;;;;;;;21.03;64.43;99693.34;5125973;28;20104;-77
2023/09/26 09:52:48;;;;;;;10.32;6.18;;;;;;;21.24;64.29;99706.66;5124459;28;20051;-77
2023/09/26 09:55:20;;;;;;;13.77;6.10;;;;;;;21.52;63.59;99725.59;5126275;28;20051;-77
2023/09/26 09:57:50;;;;;;;9.07;7.05;;;;;;;21.47;62.77;99723.34;5108077;28;20070;-78
2023/09/26 10:00:24;;;;;;;8.07;7.10;;;;;;;21.99;61.81;99770.50;5126204;28;20100;-77
2023/09/26 10:02:53;;;;;;;9.27;7.65;;;;;;;21.59;63.69;99724.03;5126185;28;20039;-78
2023/09/26 10:05:21;;;;;;;9.77;6.65;;;;;;;21.82;64.18;99756.94;5124841;28;20044;-78
2023/09/26 10:07:50;;;;;;;9.27;7.25;;;;;;;21.87;64.23;99760.03;5125872;28;20054;-78
2023/09/26 10:10:18;;;;;;;9.30;7.03;;;;;;;21.70;64.40;99710.38;5124650;28;20043;-78
2023/09/26 10:12:47;;;;;;;13.45;9.63;;;;;;;21.82;63.22;99720.00;5124489;28;20333;-78
2023/09/26 10:15:16;;;;;;;10.63;8.23;;;;;;;22.17;62.10;99745.44;5124489;28;20092;-78
2023/09/26 10:17:48;;;;;;;9.73;8.35;;;;;;;21.53;61.19;99614.91;5107947;28;20292;-78
2023/09/26 10:20:16;;;;;;;13.93;8.50;;;;;;;22.03;61.47;99679.31;5125547;28;20040;-77
2023/09/26 10:22:44;;;;;;;10.10;7.90;;;;;;;22.41;62.08;99738.53;5125858;28;20036;-77
2023/09/26 10:25:18;;;;;;;10.60;7.82;;;;;;;22.38;62.92;99733.38;5124162;28;20250;-78
2023/09/26 10:27:47;;;;;;;10.52;6.70;;;;;;;22.54;63.21;99729.22;5124862;28;20046;-78
2023/09/26 10:30:15;;;;;;;12.50;8.05;;;;;;;22.71;60.32;99728.41;5125498;28;20046;-78
2023/09/26 10:32:45;;;;;;;11.48;7.85;;;;;;;22.56;59.87;99684.03;5125353;28;20039;-78
2023/09/26 10:35:25;;;;;;;11.35;7.30;;;;;;;22.69;61.80;99730.41;5125373;28;20044;-78
2023/09/26 10:38:01;;;;;;;10.80;7.03;;;;;;;21.23;62.52;99523.50;5125404;28;20241;-78
2023/09/26 10:40:29;;;;;;;8.40;7.40;;;;;;;22.46;61.68;99675.09;5126419;28;20326;-78
2023/09/26 10:42:56;;;;;;;8.43;6.47;;;;;;;22.64;59.54;99655.25;5129036;28;20035;-78
2023/09/26 10:45:22;;;;;;;12.65;7.63;;;;;;;22.74;59.47;99663.25;5128462;28;20062;-78
2023/09/26 10:47:50;;;;;;;13.60;8.10;;;;;;;23.17;59.78;99727.31;5129302;28;20047;-78
2023/09/26 10:50:17;;;;;;;10.27;6.22;;;;;;;23.02;61.84;99723.47;5129053;28;20043;-78
2023/09/26 10:52:48;;;;;;;12.70;6.10;;;;;;;23.06;61.38;99719.47;5129078;28;20329;-78
2023/09/26 10:55:16;;;;;;;10.88;6.68;;;;;;;22.94;59.83;99658.53;5111308;28;20047;-78
2023/09/26 10:57:45;;;;;;;12.00;6.65;;;;;;;22.84;59.13;99646.97;5127838;28;20077;-78
2023/09/26 11:00:13;;;;;;;10.82;5.32;;;;;;;22.76;59.47;99630.69;5127775;28;20035;-78
2023/09/26 11:02:41;;;;;;;8.00;5.25;;;;;;;23.33;59.72;99703.16;5127763;28;20040;-78
2023/09/26 11:05:12;;;;;;;9.43;6.30;;;;;;;23.11;58.22;99640.59;5128429;28;20055;-78
2023/09/26 11:07:39;;;;;;;9.23;5.65;;;;;;;23.43;59.84;99702.22;5128215;28;20039;-78
2023/09/26 11:10:12;;;;;;;9.90;6.32;;;;;;;22.73;59.29;99594.03;5127783;28;20089;-77
2023/09/26 11:12:38;;;;;;;9.23;5.85;;;;;;;23.26;58.04;99657.94;5127522;28;20088;-78
2023/09/26 11:15:07;;;;;;;7.45;5.93;;;;;;;23.45;60.47;99708.31;5110785;28;20053;-77
2023/09/26 11:17:35;;;;;;;9.60;5.95;;;;;;;22.94;59.03;99599.09;5128359;28;20212;-78
2023/09/26 11:20:05;;;;;;;10.55;6.32;;;;;;;23.62;58.68;99696.59;5128660;28;20315;-78
2023/09/26 11:22:44;;;;;;;9.05;5.72;;;;;;;23.50;59.50;99705.97;5128248;28;20330;-77
2023/09/26 11:25:11;;;;;;;9.07;5.78;;;;;;;23.68;58.00;99690.53;5127959;28;20054;-77
2023/09/26 11:27:39;;;;;;;8.48;6.60;;;;;;;23.51;57.99;99640.03;5128168;28;20043;-77
2023/09/26 11:30:09;;;;;;;10.13;6.63;;;;;;;23.47;57.60;99633.25;5127327;28;20359;-77